Aelvsbyn, Sweden

8:09 PM CET on February 11, 2016 (GMT +0100)
Kusan Boden | | Change Station
CLOSE
Current Station
Personal Weather Station
Location: Boden, BD
Elevation: 6 ft
Nearby Weather Stations

Elev 6 ft 65.85 °N, 21.53 °E | Updated 2 seconds ago

Clear
Clear
27.3 °F
Feels Like 27 °F
N
0.0
Wind Variable Wind from North
Gusts 0.0 mph

Today
High -- | Low -- °F
--% Chance of Precip.
Yesterday
High -- | Low -- °F
Precip. -- in
Pressure 29.47 in
Visibility -9999.0 miles
Clouds
Windchill 27 °F
Dew Point 26 °F
Humidity 96%
Rainfall 0.00 in
Snow Depth Not available.
7:55 AM 3:45 PM
Waxing Crescent, 14% visible
METAR ESPE 111850Z 30003KT CAVOK M04/M06 Q0998
Pressure 29.47 in
Visibility -9999.0 miles
Clouds
Windchill 27 °F
Dew Point 26 °F
Humidity 96%
Rainfall 0.00 in
Snow Depth Not available.
7:55 AM 3:45 PM
Waxing Crescent, 14% visible
METAR ESPE 111850Z 30003KT CAVOK M04/M06 Q0998

10-Day Weather Forecast

Almanac

Astronomy

Feb. 11, 2016 Rise Set
Actual Time
Civil Twilight
Nautical Twilight
Astronomical Twilight
Moon
Length of Visible Light
Length of Day
Tomorrow will be .
, % of the Moon is Illuminated

Today's Extremes

Country Highs Country Lows

Community

WunderPhotos

Upload Photos

1,892,140 photos uploaded!

WunderBlog® & News

Nearby

Air Quality

  Air Quality AQ Index Pollutant
Not available.

Snow Depth

Station Depth Elevation

Earthquake Activity

City Distance Mag. Time & Date
Minimum magnitude displayed is 2.5.

Coastal Water Temperatures

Place Temperature

Stations

Nearby Weather Stations

Station Location Temp. Windchill Dew Point Humidity Wind Precip. Elev Updated Type